Time;durP1;ratioP1;P1;durP2;ratioP2;P2;SDS_P1;SDS_P2;PMS_P1;PMS_P2;Temp;Humidity;BMP_temperature;BMP_pressure;BME280_temperature;BME280_humidity;BME280_pressure;Samples;Min_cycle;Max_cycle;Signal;HPM_P1;HPM_P2
2021/11/29 00:00:52;;;;;;;;;9.50;8.00;;;;;5.20;59.52;100197.66;5062584;28;45354;-45
2021/11/29 00:03:18;;;;;;;;;10.50;9.00;;;;;5.20;59.35;100195.91;5062641;28;45332;-44
2021/11/29 00:05:44;;;;;;;;;10.25;9.50;;;;;5.20;59.35;100195.91;5062502;28;46197;-44
2021/11/29 00:08:09;;;;;;;;;9.00;7.75;;;;;5.20;59.44;100197.66;5062490;28;45319;-43
2021/11/29 00:10:35;;;;;;;;;8.75;8.50;;;;;5.19;59.51;100195.94;5077840;28;45296;-46
2021/11/29 00:13:00;;;;;;;;;7.50;7.50;;;;;5.16;59.42;100189.00;5062473;28;45337;-44
2021/11/29 00:15:26;;;;;;;;;9.00;8.00;;;;;5.19;59.37;100206.34;5062391;28;45554;-43
2021/11/29 00:17:52;;;;;;;;;11.75;8.75;;;;;5.17;59.23;100195.06;5062433;28;45400;-45
2021/11/29 00:20:18;;;;;;;;;9.00;8.00;;;;;5.17;59.23;100198.53;5062331;28;45669;-44
2021/11/29 00:22:44;;;;;;;;;9.75;9.75;;;;;5.18;59.44;100205.50;5062461;28;45418;-43
2021/11/29 00:25:10;;;;;;;;;7.25;7.00;;;;;5.16;59.61;100207.22;5061833;28;46102;-42
2021/11/29 00:27:38;;;;;;;;;5.50;5.50;;;;;5.17;59.37;100205.47;5062257;28;45366;-43
2021/11/29 00:30:09;;;;;;;;;9.25;7.25;;;;;5.16;59.21;100206.38;5062277;28;45378;-43
2021/11/29 00:32:34;;;;;;;;;9.75;8.50;;;;;5.14;59.29;100208.09;5061936;28;45435;-45
2021/11/29 00:35:00;;;;;;;;;9.25;8.75;;;;;5.14;59.55;100205.50;5060659;28;45277;-43
2021/11/29 00:37:25;;;;;;;;;9.00;8.25;;;;;5.13;59.30;100215.06;5062251;28;45299;-43
2021/11/29 00:39:52;;;;;;;;;10.50;9.00;;;;;5.11;59.38;100208.97;5061764;28;45504;-44
2021/11/29 00:42:17;;;;;;;;;9.50;8.25;;;;;5.12;59.29;100217.63;5062062;28;45530;-43
2021/11/29 00:44:42;;;;;;;;;12.25;9.00;;;;;5.09;59.48;100217.66;5061550;28;45330;-43
2021/11/29 00:47:08;;;;;;;;;5.50;5.50;;;;;5.10;59.22;100209.81;5062113;28;45235;-45
2021/11/29 00:49:33;;;;;;;;;7.75;7.75;;;;;5.09;59.48;100222.84;5062083;28;45424;-43
2021/11/29 00:51:59;;;;;;;;;13.50;10.50;;;;;5.10;59.48;100222.84;5060704;28;45458;-42
2021/11/29 00:54:24;;;;;;;;;8.75;7.00;;;;;5.05;59.15;100222.84;5059916;28;47242;-43
2021/11/29 00:56:49;;;;;;;;;12.00;9.50;;;;;4.97;59.45;100214.16;5061922;28;45302;-43
2021/11/29 00:59:15;;;;;;;;;8.00;7.75;;;;;5.07;59.73;100238.50;5077284;27;45367;-46
2021/11/29 01:01:40;;;;;;;;;13.00;9.00;;;;;5.08;59.35;100239.34;5061327;28;45331;-45
2021/11/29 01:04:06;;;;;;;;;9.00;7.75;;;;;5.07;59.28;100241.09;5061453;28;46814;-44
2021/11/29 01:06:31;;;;;;;;;9.50;9.50;;;;;5.07;59.30;100242.81;5061746;28;45346;-43
2021/11/29 01:08:57;;;;;;;;;9.75;9.75;;;;;5.07;59.09;100240.22;5061584;28;45414;-43
2021/11/29 01:11:22;;;;;;;;;8.00;8.00;;;;;5.07;59.30;100245.41;5061486;28;45256;-46
2021/11/29 01:13:47;;;;;;;;;12.25;8.00;;;;;5.05;59.32;100241.06;5061327;28;46080;-45
2021/11/29 01:16:13;;;;;;;;;9.00;8.00;;;;;5.05;59.56;100248.03;5061678;28;45329;-45
2021/11/29 01:18:39;;;;;;;;;9.00;6.75;;;;;5.03;59.45;100236.72;5061739;28;45300;-46
2021/11/29 01:21:05;;;;;;;;;11.00;7.50;;;;;5.04;59.99;100249.78;5061511;28;45252;-42
2021/11/29 01:23:30;;;;;;;;;9.25;8.50;;;;;5.02;59.31;100254.09;5061167;28;45343;-44
2021/11/29 01:25:56;;;;;;;;;8.75;7.00;;;;;5.03;59.62;100258.44;5061140;28;45346;-48
2021/11/29 01:28:23;;;;;;;;;9.00;8.00;;;;;5.04;59.47;100261.91;5061368;28;45520;-46
2021/11/29 01:30:50;;;;;;;;;9.25;8.00;;;;;5.05;59.46;100261.06;5061303;28;45436;-43
2021/11/29 01:33:15;;;;;;;;;9.25;9.00;;;;;5.04;59.56;100268.00;5060628;28;46693;-43
2021/11/29 01:35:41;;;;;;;;;11.50;9.75;;;;;5.05;59.50;100269.72;5059781;28;45359;-45
2021/11/29 01:38:07;;;;;;;;;10.50;9.00;;;;;5.05;59.43;100266.25;5061313;28;45335;-46
2021/11/29 01:40:32;;;;;;;;;12.50;11.50;;;;;5.04;59.37;100272.34;5060774;28;45437;-44
2021/11/29 01:43:07;;;;;;;;;10.75;8.50;;;;;5.04;59.63;100273.22;5060946;28;46153;-48
2021/11/29 01:45:39;;;;;;;;;9.75;9.75;;;;;5.04;59.55;100282.75;5060993;28;45306;-44
2021/11/29 01:48:05;;;;;;;;;10.00;10.00;;;;;5.03;59.52;100279.28;5060898;28;45357;-43
2021/11/29 01:50:32;;;;;;;;;13.25;11.00;;;;;5.01;59.65;100283.63;5060825;28;45507;-50
2021/11/29 01:52:57;;;;;;;;;12.25;11.00;;;;;5.02;59.37;100284.50;5059328;28;45489;-43
2021/11/29 01:55:22;;;;;;;;;14.25;9.00;;;;;5.01;59.36;100285.38;5060508;28;45338;-46
2021/11/29 01:57:48;;;;;;;;;13.00;9.00;;;;;5.00;59.64;100286.22;5060942;28;45433;-47
2021/11/29 02:00:18;;;;;;;;;10.25;9.00;;;;;5.00;59.49;100284.47;5060765;28;45455;-44
2021/11/29 02:02:48;;;;;;;;;11.25;9.00;;;;;4.99;59.38;100289.69;5060581;28;45525;-44
2021/11/29 02:05:14;;;;;;;;;14.00;11.00;;;;;4.99;59.37;100289.69;5059488;28;45240;-43
2021/11/29 02:07:40;;;;;;;;;10.00;8.50;;;;;4.99;59.37;100293.19;5060673;28;45247;-43
2021/11/29 02:10:07;;;;;;;;;8.00;7.00;;;;;4.99;59.30;100287.09;5060309;28;45517;-48
2021/11/29 02:12:32;;;;;;;;;13.75;8.00;;;;;5.00;59.40;100288.84;5059911;28;45353;-47
2021/11/29 02:14:58;;;;;;;;;13.00;9.00;;;;;4.96;59.50;100289.69;5060428;28;45302;-46
2021/11/29 02:17:23;;;;;;;;;13.25;8.00;;;;;4.97;59.55;100289.69;5059452;28;45459;-44
2021/11/29 02:19:48;;;;;;;;;10.00;10.00;;;;;4.97;59.41;100281.00;5060525;28;45451;-44
2021/11/29 02:22:14;;;;;;;;;8.75;7.75;;;;;4.93;59.33;100281.88;5060408;28;45480;-44
2021/11/29 02:24:41;;;;;;;;;8.50;7.25;;;;;4.93;59.30;100295.78;5060223;28;45354;-44
2021/11/29 02:27:07;;;;;;;;;14.50;10.75;;;;;4.91;59.42;100297.50;5060543;28;45346;-44
2021/11/29 02:29:34;;;;;;;;;9.75;8.75;;;;;4.88;59.57;100287.09;5060317;28;45437;-43
2021/11/29 02:32:00;;;;;;;;;8.75;7.75;;;;;4.88;59.27;100294.91;5060066;28;46325;-43
2021/11/29 02:34:30;;;;;;;;;8.50;8.00;;;;;4.88;59.39;100300.97;5060179;28;45341;-44
2021/11/29 02:36:59;;;;;;;;;8.25;7.00;;;;;4.88;59.67;100311.38;5060518;28;45322;-43
2021/11/29 02:39:25;;;;;;;;;8.50;7.50;;;;;4.84;59.56;100309.63;5059730;28;45232;-43
2021/11/29 02:41:54;;;;;;;;;6.50;6.00;;;;;4.86;59.45;100317.44;5060178;28;45291;-44
2021/11/29 02:44:19;;;;;;;;;9.75;6.75;;;;;4.85;59.64;100313.97;5059872;27;45369;-44
2021/11/29 02:46:45;;;;;;;;;11.75;8.00;;;;;4.84;59.70;100314.84;5060202;28;45332;-43
2021/11/29 02:49:13;;;;;;;;;8.50;7.25;;;;;4.86;59.69;100322.66;5060194;28;45370;-44
2021/11/29 02:51:45;;;;;;;;;9.00;8.00;;;;;4.86;59.60;100314.84;5059695;28;46358;-44
2021/11/29 02:54:14;;;;;;;;;10.75;8.25;;;;;4.85;59.30;100324.38;5059568;28;45245;-43
2021/11/29 02:56:42;;;;;;;;;6.50;4.50;;;;;4.85;59.44;100321.78;5060182;28;45296;-43
2021/11/29 02:59:11;;;;;;;;;9.75;7.50;;;;;4.87;59.71;100329.59;5059808;28;45604;-43
2021/11/29 03:01:38;;;;;;;;;10.00;9.00;;;;;4.86;59.36;100335.69;5058203;28;47363;-43
2021/11/29 03:04:04;;;;;;;;;7.75;6.75;;;;;4.83;59.62;100336.53;5059721;28;45323;-42
2021/11/29 03:06:29;;;;;;;;;8.25;7.25;;;;;4.84;59.62;100346.09;5060127;28;45409;-42
2021/11/29 03:08:55;;;;;;;;;7.75;7.00;;;;;4.84;59.31;100342.59;5059460;28;45298;-44
2021/11/29 03:11:20;;;;;;;;;8.00;7.50;;;;;4.84;59.63;100346.09;5059798;28;46211;-44
2021/11/29 03:13:46;;;;;;;;;7.25;6.50;;;;;4.84;59.50;100345.22;5059883;28;45281;-43
2021/11/29 03:16:12;;;;;;;;;11.50;7.25;;;;;4.82;59.56;100344.34;5058739;28;45470;-43
2021/11/29 03:18:41;;;;;;;;;7.50;6.75;;;;;4.83;59.75;100349.56;5059674;28;45409;-50
2021/11/29 03:21:08;;;;;;;;;8.75;8.75;;;;;4.83;59.38;100353.88;5059677;28;45364;-48
2021/11/29 03:23:34;;;;;;;;;11.00;8.50;;;;;4.82;59.25;100354.78;5059628;28;45806;-44
2021/11/29 03:26:00;;;;;;;;;7.75;7.75;;;;;4.81;59.79;100359.09;5061967;28;45202;-43
2021/11/29 03:28:26;;;;;;;;;8.50;8.00;;;;;4.80;59.69;100362.53;5062982;28;45700;-44
2021/11/29 03:30:52;;;;;;;;;8.00;6.00;;;;;4.77;59.61;100362.56;5063062;28;47130;-43
2021/11/29 03:33:18;;;;;;;;;10.25;7.50;;;;;4.76;59.53;100359.94;5062966;28;45322;-42
2021/11/29 03:35:43;;;;;;;;;8.25;7.00;;;;;4.76;59.73;100368.63;5063359;28;45414;-43
2021/11/29 03:38:09;;;;;;;;;7.00;7.00;;;;;4.76;59.84;100370.38;5062782;28;45410;-43
2021/11/29 03:40:38;;;;;;;;;7.25;7.25;;;;;4.75;59.90;100382.50;5062605;28;46375;-44
2021/11/29 03:43:04;;;;;;;;;8.75;6.75;;;;;4.74;59.57;100385.97;5062949;28;45438;-44
2021/11/29 03:45:30;;;;;;;;;7.50;6.75;;;;;4.72;59.85;100383.34;5062939;28;45283;-45
2021/11/29 03:47:55;;;;;;;;;12.00;8.00;;;;;4.74;59.70;100391.16;5061348;28;45475;-45
2021/11/29 03:50:21;;;;;;;;;6.00;6.00;;;;;4.74;59.75;100391.16;5062999;28;45316;-45
2021/11/29 03:52:46;;;;;;;;;8.00;8.00;;;;;4.72;59.69;100398.13;5078317;28;45245;-43
2021/11/29 03:55:11;;;;;;;;;7.75;7.50;;;;;4.70;59.53;100403.31;5078334;28;45280;-43
2021/11/29 03:57:37;;;;;;;;;9.75;8.75;;;;;4.69;59.84;100411.09;5062671;28;45459;-43
2021/11/29 04:00:05;;;;;;;;;8.75;8.00;;;;;4.68;59.57;100407.63;5062674;28;46203;-44
2021/11/29 04:02:30;;;;;;;;;8.25;6.75;;;;;4.66;59.65;100416.31;5062511;28;45355;-44
2021/11/29 04:04:55;;;;;;;;;12.75;9.00;;;;;4.67;59.98;100423.25;5061531;28;45387;-44
2021/11/29 04:07:21;;;;;;;;;11.00;7.75;;;;;4.66;59.78;100426.72;5078251;28;45451;-44
2021/11/29 04:09:46;;;;;;;;;9.25;8.00;;;;;4.66;59.91;100429.31;5062243;28;46239;-43
2021/11/29 04:12:12;;;;;;;;;10.75;8.50;;;;;4.56;59.85;100411.03;5062324;28;45361;-43
2021/11/29 04:14:37;;;;;;;;;12.00;9.00;;;;;4.64;59.61;100434.53;5062736;28;45319;-42
2021/11/29 04:17:02;;;;;;;;;8.75;8.25;;;;;4.64;59.62;100433.63;5062581;28;45301;-43
2021/11/29 04:19:28;;;;;;;;;12.00;9.00;;;;;4.65;59.74;100440.59;5062399;28;45895;-42
2021/11/29 04:21:54;;;;;;;;;5.75;5.50;;;;;4.64;60.03;100434.53;5062470;28;45252;-42
2021/11/29 04:24:20;;;;;;;;;11.50;10.00;;;;;4.65;59.51;100441.44;5062078;28;45350;-43
2021/11/29 04:26:51;;;;;;;;;11.25;9.50;;;;;4.66;59.82;100445.78;5062246;28;45352;-45
2021/11/29 04:29:20;;;;;;;;;7.75;7.75;;;;;4.67;59.80;100447.53;5062170;28;45388;-45
2021/11/29 04:31:46;;;;;;;;;11.25;7.50;;;;;4.68;59.69;100451.03;5062004;28;45209;-44
2021/11/29 04:34:11;;;;;;;;;7.50;7.50;;;;;4.69;59.33;100451.03;5061811;28;45406;-46
2021/11/29 04:36:37;;;;;;;;;7.25;6.75;;;;;4.69;59.96;100451.03;5062192;28;45378;-42
2021/11/29 04:39:03;;;;;;;;;9.50;9.50;;;;;4.71;59.74;100459.69;5061761;28;45266;-44
2021/11/29 04:41:28;;;;;;;;;9.50;8.00;;;;;4.70;59.72;100462.31;5060762;28;45278;-43
2021/11/29 04:43:53;;;;;;;;;9.50;7.50;;;;;4.71;60.04;100459.69;5074545;28;45179;-44
2021/11/29 04:46:19;;;;;;;;;11.25;7.00;;;;;4.72;59.72;100466.66;5058812;28;45752;-45
2021/11/29 04:48:44;;;;;;;;;7.75;7.75;;;;;4.69;59.94;100463.16;5061880;28;47350;-46
2021/11/29 04:51:10;;;;;;;;;8.75;7.00;;;;;4.70;59.92;100464.91;5061834;28;45428;-43
2021/11/29 04:53:35;;;;;;;;;10.00;7.25;;;;;4.74;60.03;100468.41;5062007;28;45481;-43
2021/11/29 04:56:01;;;;;;;;;11.00;8.00;;;;;4.72;59.68;100474.47;5060212;28;46011;-43
2021/11/29 04:58:27;;;;;;;;;12.00;8.25;;;;;4.72;60.13;100471.00;5061892;28;46357;-45
2021/11/29 05:00:52;;;;;;;;;7.75;6.00;;;;;4.69;59.89;100473.56;5061448;28;45347;-45
2021/11/29 05:03:19;;;;;;;;;8.00;8.00;;;;;4.70;59.65;100477.94;5061992;28;45306;-44
2021/11/29 05:05:44;;;;;;;;;10.50;7.00;;;;;4.70;59.66;100488.34;5060481;28;45546;-43
2021/11/29 05:08:10;;;;;;;;;11.75;9.00;;;;;4.69;59.88;100494.41;5061615;28;46127;-44
2021/11/29 05:10:35;;;;;;;;;8.75;8.75;;;;;4.68;59.91;100503.09;5061287;28;45134;-43
2021/11/29 05:13:00;;;;;;;;;7.00;7.00;;;;;4.67;59.88;100510.03;5061741;28;45602;-46
2021/11/29 05:15:26;;;;;;;;;7.00;6.00;;;;;4.66;60.20;100515.22;5061466;28;45234;-45
2021/11/29 05:17:51;;;;;;;;;9.50;7.25;;;;;4.65;59.79;100509.13;5060193;28;47139;-43
2021/11/29 05:20:17;;;;;;;;;7.75;7.75;;;;;4.62;59.69;100509.13;5061466;28;45170;-44
2021/11/29 05:22:42;;;;;;;;;9.00;7.75;;;;;4.63;60.20;100518.69;5061534;28;45239;-43
2021/11/29 05:25:08;;;;;;;;;7.75;7.75;;;;;4.63;59.92;100521.28;5061039;28;45260;-43
2021/11/29 05:27:33;;;;;;;;;7.00;7.00;;;;;4.65;59.85;100531.69;5061458;28;47349;-44
2021/11/29 05:29:58;;;;;;;;;12.50;8.50;;;;;4.64;59.93;100530.84;5061225;28;45215;-46
2021/11/29 05:32:24;;;;;;;;;19.50;15.50;;;;;4.61;59.94;100529.94;5061311;28;45621;-45
2021/11/29 05:34:50;;;;;;;;;16.00;11.75;;;;;4.62;59.82;100536.91;5059491;28;45431;-44
2021/11/29 05:37:15;;;;;;;;;8.75;7.25;;;;;4.64;59.74;100545.56;5060728;28;45888;-43
2021/11/29 05:39:40;;;;;;;;;9.75;8.25;;;;;4.63;59.97;100546.41;5060747;28;45342;-43
2021/11/29 05:42:06;;;;;;;;;12.75;8.50;;;;;4.60;60.01;100536.00;5060977;28;45359;-44
2021/11/29 05:44:31;;;;;;;;;8.25;6.00;;;;;4.62;60.08;100552.50;5059595;28;45337;-43
2021/11/29 05:46:57;;;;;;;;;8.00;7.00;;;;;4.61;59.91;100559.44;5055287;28;46923;-43
2021/11/29 05:49:22;;;;;;;;;11.75;8.00;;;;;4.60;60.11;100560.28;5057683;28;45265;-44
2021/11/29 05:51:47;;;;;;;;;8.25;7.00;;;;;4.60;60.16;100569.84;5061078;28;45327;-43
2021/11/29 05:54:13;;;;;;;;;14.75;9.50;;;;;4.59;59.81;100579.41;5060578;28;45449;-43
2021/11/29 05:56:38;;;;;;;;;11.50;8.00;;;;;4.59;59.83;100581.09;5060917;28;45930;-43
2021/11/29 05:59:04;;;;;;;;;12.00;8.50;;;;;4.59;59.97;100579.41;5060895;28;45303;-45
2021/11/29 06:01:29;;;;;;;;;10.75;8.25;;;;;4.54;60.00;100581.94;5060669;28;45473;-43
2021/11/29 06:03:55;;;;;;;;;11.75;11.75;;;;;4.55;59.98;100577.59;5054459;28;45375;-47
2021/11/29 06:06:20;;;;;;;;;12.75;11.00;;;;;4.55;60.21;100582.81;5070867;27;46444;-44
2021/11/29 06:08:46;;;;;;;;;10.50;7.00;;;;;4.56;59.89;100589.75;5062950;28;45663;-45
2021/11/29 06:11:11;;;;;;;;;11.00;11.00;;;;;4.56;60.10;100585.41;5060068;28;45304;-46
2021/11/29 06:13:37;;;;;;;;;11.00;8.50;;;;;4.55;60.10;100596.72;5060320;28;45346;-46
2021/11/29 06:16:03;;;;;;;;;9.25;9.00;;;;;4.54;60.05;100589.75;5060516;28;46325;-43
2021/11/29 06:18:28;;;;;;;;;4.00;2.75;;;;;4.56;60.13;100605.38;5060494;28;45413;-47
2021/11/29 06:20:54;;;;;;;;;7.00;7.00;;;;;4.54;60.10;100610.59;5060694;28;45256;-44
2021/11/29 06:23:19;;;;;;;;;7.25;7.00;;;;;4.53;59.97;100614.03;5060413;28;45385;-44
2021/11/29 06:25:44;;;;;;;;;13.00;10.50;;;;;4.51;60.16;100607.94;5060026;28;45411;-44
2021/11/29 06:28:10;;;;;;;;;11.25;8.00;;;;;4.53;60.10;100610.56;5060248;28;45307;-46
2021/11/29 06:30:35;;;;;;;;;7.50;7.50;;;;;4.53;60.03;100615.78;5060443;28;45429;-45
2021/11/29 06:33:01;;;;;;;;;11.50;11.00;;;;;4.51;59.98;100630.50;5041939;28;45325;-46
2021/11/29 06:35:27;;;;;;;;;11.25;10.50;;;;;4.52;60.03;100642.66;5060124;28;47351;-44
2021/11/29 06:37:59;;;;;;;;;8.00;8.00;;;;;4.47;59.96;100636.53;5060053;28;45375;-46
2021/11/29 06:40:24;;;;;;;;;15.25;12.00;;;;;4.49;60.11;100647.81;5058397;28;45400;-45
2021/11/29 06:42:50;;;;;;;;;9.00;9.00;;;;;4.50;60.30;100645.25;5058789;28;46011;-43
2021/11/29 06:45:15;;;;;;;;;14.50;13.00;;;;;4.51;59.94;100656.53;5058779;28;46220;-46
2021/11/29 06:47:42;;;;;;;;;12.50;9.25;;;;;4.52;60.13;100672.16;5059682;28;45299;-44
2021/11/29 06:50:09;;;;;;;;;10.00;8.00;;;;;4.53;60.00;100666.09;5060066;28;45408;-44
2021/11/29 06:52:34;;;;;;;;;10.00;8.00;;;;;4.53;60.14;100663.50;5058516;28;45371;-46
2021/11/29 06:55:00;;;;;;;;;11.75;10.25;;;;;4.57;60.06;100680.00;5059622;28;45428;-45
2021/11/29 06:57:25;;;;;;;;;15.75;11.25;;;;;4.58;60.15;100684.38;5059698;28;45324;-45
2021/11/29 06:59:51;;;;;;;;;10.75;10.75;;;;;4.62;60.11;100693.06;5057759;28;45236;-48
2021/11/29 07:02:18;;;;;;;;;8.00;8.00;;;;;4.63;60.29;100692.19;5059657;28;45442;-46
2021/11/29 07:04:44;;;;;;;;;9.25;8.00;;;;;4.65;60.54;100703.50;5059957;28;47166;-47
2021/11/29 07:07:10;;;;;;;;;11.50;9.25;;;;;4.67;60.16;100705.25;5059663;28;45335;-50
2021/11/29 07:09:35;;;;;;;;;8.25;7.25;;;;;4.70;60.31;100707.03;5058421;28;45339;-51
2021/11/29 07:12:01;;;;;;;;;9.75;9.00;;;;;4.71;60.20;100709.63;5057793;28;45402;-49
2021/11/29 07:14:27;;;;;;;;;13.00;9.75;;;;;4.76;60.27;100709.69;5059685;28;46197;-49
2021/11/29 07:16:54;;;;;;;;;9.00;9.00;;;;;4.78;60.35;100715.78;5059769;28;45334;-50
2021/11/29 07:19:19;;;;;;;;;7.50;6.25;;;;;4.78;60.56;100715.78;5059912;28;45224;-50
2021/11/29 07:21:45;;;;;;;;;11.75;11.00;;;;;4.85;60.55;100732.34;5059524;28;45338;-49
2021/11/29 07:24:12;;;;;;;;;11.00;9.00;;;;;4.87;60.29;100735.84;5059263;28;46155;-46
2021/11/29 07:26:38;;;;;;;;;11.75;8.00;;;;;4.93;60.35;100737.59;5058211;28;45266;-49
2021/11/29 07:29:04;;;;;;;;;8.50;8.50;;;;;4.96;60.67;100742.84;5059768;28;45272;-47
2021/11/29 07:31:29;;;;;;;;;8.25;8.00;;;;;4.98;60.71;100742.00;5058918;28;45342;-49
2021/11/29 07:33:55;;;;;;;;;9.00;8.00;;;;;5.03;60.62;100753.34;5058765;28;45442;-49
2021/11/29 07:36:20;;;;;;;;;6.50;6.50;;;;;5.07;60.66;100751.63;5074897;28;45964;-48
2021/11/29 07:38:45;;;;;;;;;14.25;9.50;;;;;5.11;60.56;100748.19;5059252;28;45496;-48
2021/11/29 07:41:11;;;;;;;;;8.25;7.00;;;;;5.14;60.52;100749.94;5058621;28;45427;-45
2021/11/29 07:43:37;;;;;;;;;9.00;9.00;;;;;5.17;60.41;100758.66;5057339;28;46020;-45
2021/11/29 07:46:02;;;;;;;;;8.00;7.25;;;;;5.19;60.64;100763.88;5058120;28;45401;-44
2021/11/29 07:48:27;;;;;;;;;11.00;8.00;;;;;5.21;60.82;100763.03;5059518;28;45498;-45
2021/11/29 07:50:54;;;;;;;;;4.50;4.50;;;;;5.24;60.42;100769.13;5059297;28;45406;-47
2021/11/29 07:53:20;;;;;;;;;13.25;11.50;;;;;5.26;60.51;100776.09;5059117;28;46295;-48
2021/11/29 07:55:45;;;;;;;;;9.50;9.00;;;;;5.29;60.61;100770.91;5057586;28;45364;-48
2021/11/29 07:58:11;;;;;;;;;9.50;8.25;;;;;5.34;60.68;100778.78;5059300;28;45288;-47
2021/11/29 08:00:37;;;;;;;;;8.75;8.00;;;;;5.34;60.36;100776.16;5058978;28;45354;-46
2021/11/29 08:03:05;;;;;;;;;7.75;7.75;;;;;5.37;60.74;100786.59;5058971;28;45434;-48
2021/11/29 08:05:31;;;;;;;;;21.00;20.00;;;;;5.39;60.43;100784.88;5057390;28;45539;-43
2021/11/29 08:07:58;;;;;;;;;25.25;24.25;;;;;5.43;60.65;100781.44;5058732;28;46470;-47
2021/11/29 08:10:24;;;;;;;;;11.75;11.25;;;;;5.45;60.48;100784.09;5060996;28;45360;-45
2021/11/29 08:12:51;;;;;;;;;9.25;9.25;;;;;5.48;60.41;100792.75;5062274;28;45170;-46
2021/11/29 08:15:17;;;;;;;;;11.75;10.50;;;;;5.51;60.55;100791.94;5062332;28;45220;-46
2021/11/29 08:17:43;;;;;;;;;11.50;8.00;;;;;5.56;60.48;100799.78;5062684;28;45296;-44
2021/11/29 08:20:10;;;;;;;;;9.25;7.00;;;;;5.56;60.71;100791.97;5062222;28;45415;-48
2021/11/29 08:22:35;;;;;;;;;14.25;9.75;;;;;5.61;60.58;100798.06;5062353;28;46170;-48
2021/11/29 08:25:02;;;;;;;;;17.25;14.00;;;;;5.63;60.50;100810.25;5061780;28;45240;-50
2021/11/29 08:27:28;;;;;;;;;8.00;8.00;;;;;5.65;60.71;100808.56;5061142;28;45340;-46
2021/11/29 08:29:54;;;;;;;;;7.75;7.75;;;;;5.70;60.75;100811.19;5062129;28;45478;-48
2021/11/29 08:32:19;;;;;;;;;6.75;6.25;;;;;5.72;60.49;100819.03;5061989;28;46097;-47
2021/11/29 08:34:45;;;;;;;;;8.00;8.00;;;;;5.75;60.43;100813.81;5062143;28;45424;-46
2021/11/29 08:37:11;;;;;;;;;12.25;11.75;;;;;5.78;60.68;100825.16;5062372;28;45218;-47
2021/11/29 08:39:37;;;;;;;;;8.00;7.50;;;;;5.82;60.64;100824.31;5061823;28;45501;-52
2021/11/29 08:42:04;;;;;;;;;8.75;8.75;;;;;5.85;60.52;100824.34;5062048;28;46211;-48
2021/11/29 08:44:30;;;;;;;;;18.25;14.25;;;;;5.88;60.42;100833.91;5061475;28;45358;-48
2021/11/29 08:46:56;;;;;;;;;13.00;13.00;;;;;5.92;60.59;100826.97;5061954;28;45687;-50
2021/11/29 08:49:23;;;;;;;;;10.00;9.00;;;;;5.96;60.64;100837.47;5061910;28;45529;-47
2021/11/29 08:51:49;;;;;;;;;22.00;18.50;;;;;5.99;60.63;100834.88;5061602;28;46372;-47
2021/11/29 08:54:15;;;;;;;;;9.50;9.25;;;;;6.05;60.51;100827.97;5061452;28;45154;-46
2021/11/29 08:56:41;;;;;;;;;14.00;9.75;;;;;6.08;60.45;100834.06;5061700;28;45170;-49
2021/11/29 08:59:06;;;;;;;;;10.00;10.00;;;;;6.10;60.49;100839.28;5061419;28;45545;-49
2021/11/29 09:01:32;;;;;;;;;10.00;8.75;;;;;6.14;60.50;100841.94;5061402;28;45201;-48
2021/11/29 09:03:58;;;;;;;;;35.25;27.75;;;;;6.18;60.66;100843.69;5061563;28;45216;-48
2021/11/29 09:06:23;;;;;;;;;13.50;13.00;;;;;6.25;60.64;100843.72;5062147;28;45149;-47
2021/11/29 09:08:49;;;;;;;;;12.50;10.50;;;;;6.29;60.50;100840.25;5061244;28;45580;-47
2021/11/29 09:11:14;;;;;;;;;11.25;11.25;;;;;6.35;60.66;100848.13;5061707;28;45275;-46
2021/11/29 09:13:43;;;;;;;;;8.00;8.00;;;;;6.41;60.47;100849.91;5061458;28;45454;-46
2021/11/29 09:16:10;;;;;;;;;14.00;12.75;;;;;6.47;60.44;100856.00;5061770;28;45326;-47
2021/11/29 09:18:36;;;;;;;;;12.25;9.25;;;;;6.55;60.58;100868.25;5061509;28;45430;-48
2021/11/29 09:21:03;;;;;;;;;12.00;8.00;;;;;6.60;60.51;100871.75;5061301;28;46029;-44
2021/11/29 09:23:29;;;;;;;;;11.75;10.50;;;;;6.67;60.48;100873.53;5061483;28;45335;-48
2021/11/29 09:25:55;;;;;;;;;9.50;8.25;;;;;6.71;60.60;100877.03;5061220;28;45411;-47
2021/11/29 09:28:21;;;;;;;;;10.50;9.75;;;;;6.74;60.49;100882.25;5061386;28;45410;-49
2021/11/29 09:30:47;;;;;;;;;8.00;8.00;;;;;6.78;60.66;100890.09;5061123;28;45319;-46
2021/11/29 09:33:13;;;;;;;;;12.50;9.75;;;;;6.82;60.51;100899.69;5061066;28;45314;-48
2021/11/29 09:35:39;;;;;;;;;8.50;7.75;;;;;6.85;60.43;100896.22;5060251;28;45671;-46
2021/11/29 09:38:05;;;;;;;;;8.25;7.25;;;;;6.81;60.77;100892.72;5059906;28;45455;-47
2021/11/29 09:40:36;;;;;;;;;10.75;10.75;;;;;6.95;60.59;100907.56;5060694;28;46039;-49
2021/11/29 09:43:08;;;;;;;;;9.75;9.00;;;;;6.98;60.53;100908.47;5061202;28;45284;-45
2021/11/29 09:45:35;;;;;;;;;11.25;10.00;;;;;7.03;60.48;100910.22;5061139;28;45639;-48
2021/11/29 09:48:01;;;;;;;;;12.75;8.50;;;;;7.07;60.50;100912.84;5060975;28;45405;-49
2021/11/29 09:50:28;;;;;;;;;9.50;7.75;;;;;7.15;60.32;100912.88;5060853;28;45484;-49
2021/11/29 09:52:55;;;;;;;;;10.00;10.00;;;;;7.23;60.42;100912.88;5060569;28;45356;-49
2021/11/29 09:55:23;;;;;;;;;10.00;10.00;;;;;7.33;60.42;100914.63;5059415;28;45209;-48
2021/11/29 09:57:49;;;;;;;;;13.75;10.75;;;;;7.42;60.24;100919.91;5060917;28;45477;-48
2021/11/29 10:00:24;;;;;;;;;10.50;8.00;;;;;7.52;60.09;100912.06;5059130;28;47291;-50
2021/11/29 10:02:51;;;;;;;;;12.50;11.75;;;;;7.62;60.37;100924.28;5048107;28;45500;-45
2021/11/29 10:05:19;;;;;;;;;13.75;11.25;;;;;7.72;60.28;100918.19;5060791;28;45298;-46
2021/11/29 10:07:49;;;;;;;;;13.25;11.00;;;;;7.83;60.45;100925.16;5060724;27;45754;-47
2021/11/29 10:10:19;;;;;;;;;13.00;11.00;;;;;7.90;60.52;100919.94;5060111;28;45421;-47
2021/11/29 10:12:47;;;;;;;;;9.25;9.25;;;;;8.05;60.10;100933.88;5059389;28;45507;-46
2021/11/29 10:15:17;;;;;;;;;13.00;12.25;;;;;8.19;60.58;100933.84;5059363;28;45256;-47
2021/11/29 10:17:47;;;;;;;;;14.25;11.75;;;;;8.26;60.52;100919.88;5048423;28;45528;-46
2021/11/29 10:20:12;;;;;;;;;15.25;12.00;;;;;8.39;60.13;100924.25;5057986;28;48170;-47
2021/11/29 10:22:38;;;;;;;;;12.25;10.25;;;;;8.53;60.19;100925.97;5056415;28;45568;-45
2021/11/29 10:25:16;;;;;;;;;11.75;11.50;;;;;8.68;60.46;100931.19;5059639;28;45398;-46
2021/11/29 10:27:43;;;;;;;;;12.00;11.50;;;;;8.80;60.74;100924.16;5058909;28;45716;-46
2021/11/29 10:30:10;;;;;;;;;13.75;12.50;;;;;8.92;60.31;100922.34;5059012;28;48185;-46
2021/11/29 10:32:43;;;;;;;;;10.50;10.50;;;;;9.08;60.58;100923.16;5059812;28;45362;-46
2021/11/29 10:35:11;;;;;;;;;13.75;12.50;;;;;9.24;60.64;100925.69;5051534;28;45323;-46
2021/11/29 10:37:39;;;;;;;;;16.00;13.25;;;;;9.38;60.58;100921.22;5058725;28;45585;-47
2021/11/29 10:40:11;;;;;;;;;13.00;12.00;;;;;9.54;60.55;100921.13;5058601;28;46915;-47
2021/11/29 10:42:37;;;;;;;;;16.25;12.50;;;;;9.69;60.56;100914.91;5059921;28;45212;-46
2021/11/29 10:45:04;;;;;;;;;20.75;16.75;;;;;9.83;60.36;100923.50;5052395;28;45426;-48
2021/11/29 10:47:32;;;;;;;;;17.25;11.75;;;;;9.93;60.43;100927.78;5068494;28;45413;-46
2021/11/29 10:49:58;;;;;;;;;15.75;13.00;;;;;10.05;60.45;100932.09;5053117;28;46950;-46
2021/11/29 10:52:27;;;;;;;;;13.00;12.75;;;;;10.18;60.16;100932.84;5047124;28;45333;-46
2021/11/29 10:54:54;;;;;;;;;14.25;10.75;;;;;10.33;60.19;100936.22;5059614;28;45278;-45
2021/11/29 10:57:21;;;;;;;;;11.75;10.25;;;;;10.44;60.20;100928.25;5051948;28;45449;-48
2021/11/29 10:59:48;;;;;;;;;16.00;15.25;;;;;10.57;60.07;100937.75;5059612;28;46446;-45
2021/11/29 11:02:16;;;;;;;;;15.25;13.00;;;;;10.71;60.07;100941.06;5059135;28;45408;-49
2021/11/29 11:04:44;;;;;;;;;15.00;13.00;;;;;10.87;60.03;100943.53;5059686;28;45170;-47
2021/11/29 11:07:15;;;;;;;;;15.50;11.25;;;;;10.98;59.62;100952.16;5058548;28;45371;-47
2021/11/29 11:09:50;;;;;;;;;14.50;13.75;;;;;11.09;59.93;100938.00;5059240;28;46252;-46
2021/11/29 11:12:16;;;;;;;;;13.00;11.50;;;;;11.16;59.71;100945.78;5059340;28;45555;-46
2021/11/29 11:14:50;;;;;;;;;12.75;11.00;;;;;11.24;59.89;100952.72;5059282;28;45343;-46
2021/11/29 11:17:17;;;;;;;;;13.50;12.75;;;;;11.28;59.69;100947.41;5059545;28;45298;-44
2021/11/29 11:19:51;;;;;;;;;18.00;16.50;;;;;11.28;59.53;100941.25;5058439;28;46233;-50
2021/11/29 11:22:34;;;;;;;;;15.25;13.00;;;;;11.34;59.47;100949.06;5057169;28;45325;-46